createdAt,value
2022-10-17T00:01:41.210Z,102337.65
2022-10-17T00:04:13.396Z,102338.02
2022-10-17T00:06:45.558Z,102338.39
2022-10-17T00:09:17.750Z,102338.77
2022-10-17T00:11:50.337Z,102337.65
2022-10-17T00:14:22.415Z,102337.98
2022-10-17T00:16:54.585Z,102344.09
2022-10-17T00:19:26.725Z,102344.31
2022-10-17T00:22:00.624Z,102345.78
2022-10-17T00:24:35.278Z,102347.55
2022-10-17T00:27:07.440Z,102350.04
2022-10-17T00:29:39.672Z,102351.88
2022-10-17T00:32:11.890Z,102350.61
2022-10-17T00:34:44.204Z,102354.30
2022-10-17T00:37:16.340Z,102351.40
2022-10-17T00:39:51.218Z,102349.80
2022-10-17T00:42:26.099Z,102353.75
2022-10-17T00:45:14.509Z,102353.96
2022-10-17T00:47:49.985Z,102353.31
2022-10-17T00:50:23.451Z,102355.78
2022-10-17T00:52:57.355Z,102355.64
2022-10-17T00:55:32.587Z,102352.61
2022-10-17T00:58:06.460Z,102356.34
2022-10-17T01:00:39.157Z,102353.65
2022-10-17T01:03:11.563Z,102354.98
2022-10-17T01:05:44.598Z,102357.07
2022-10-17T01:08:17.110Z,102358.45
2022-10-17T01:11:02.020Z,102357.96
2022-10-17T01:13:40.567Z,102357.83
2022-10-17T01:16:19.987Z,102349.86
2022-10-17T01:19:04.094Z,102358.19
2022-10-17T01:21:48.881Z,102358.64
2022-10-17T01:24:49.441Z,102358.11
2022-10-17T01:27:45.442Z,102356.40
2022-10-17T01:30:44.777Z,102354.71
2022-10-17T01:33:23.546Z,102359.10
2022-10-17T01:36:04.742Z,102360.57
2022-10-17T01:38:44.106Z,102362.30
2022-10-17T01:41:25.585Z,102363.96
2022-10-17T01:44:05.846Z,102363.67
2022-10-17T01:46:40.982Z,102364.06
2022-10-17T01:49:15.717Z,102364.92
2022-10-17T01:51:51.036Z,102364.44
2022-10-17T01:54:28.749Z,102367.33
2022-10-17T01:57:05.429Z,102364.72
2022-10-17T01:59:42.397Z,102364.64
2022-10-17T02:02:19.120Z,102368.89
2022-10-17T02:04:53.850Z,102376.04
2022-10-17T02:07:26.536Z,102363.30
2022-10-17T02:09:59.309Z,102377.86
2022-10-17T02:12:51.151Z,102377.33
2022-10-17T02:15:42.197Z,102381.65
2022-10-17T02:18:40.575Z,102382.55
2022-10-17T02:21:21.784Z,102378.10
2022-10-17T02:23:57.819Z,102380.27
2022-10-17T02:26:35.580Z,102374.73
2022-10-17T02:29:11.945Z,102376.55
2022-10-17T02:31:48.554Z,102377.14
2022-10-17T02:34:25.807Z,102379.95
2022-10-17T02:37:02.324Z,102381.33
2022-10-17T02:39:36.304Z,102385.31
2022-10-17T02:42:11.944Z,102381.50
2022-10-17T02:44:47.398Z,102388.00
2022-10-17T02:47:24.384Z,102390.26
2022-10-17T02:49:59.025Z,102388.19
2022-10-17T02:52:37.078Z,102392.38
2022-10-17T02:55:15.229Z,102398.24
2022-10-17T02:57:51.516Z,102402.35
2022-10-17T03:00:26.438Z,102400.93
2022-10-17T03:02:58.689Z,102404.95
2022-10-17T03:05:32.008Z,102399.51
2022-10-17T03:08:04.159Z,102401.13
2022-10-17T03:10:36.304Z,102405.18
2022-10-17T03:13:08.431Z,102404.84
2022-10-17T03:15:40.678Z,102406.95
2022-10-17T03:18:12.835Z,102406.45
2022-10-17T03:20:44.988Z,102407.80
2022-10-17T03:23:17.556Z,102409.09
2022-10-17T03:25:49.668Z,102418.83
2022-10-17T03:28:21.892Z,102422.33
2022-10-17T03:30:54.196Z,102425.51
2022-10-17T03:33:26.581Z,102426.61
2022-10-17T03:35:58.794Z,102426.75
2022-10-17T03:38:30.923Z,102423.61
2022-10-17T03:41:03.723Z,102423.86
2022-10-17T03:43:36.307Z,102422.08
2022-10-17T03:46:09.279Z,102424.96
2022-10-17T03:48:41.487Z,102425.23
2022-10-17T03:51:13.795Z,102428.83
2022-10-17T03:53:45.965Z,102425.97
2022-10-17T03:56:19.969Z,102430.95
2022-10-17T03:58:52.567Z,102435.05
2022-10-17T04:01:24.959Z,102436.83
2022-10-17T04:03:58.579Z,102439.51
2022-10-17T04:06:31.393Z,102438.73
2022-10-17T04:09:03.794Z,102436.56
2022-10-17T04:11:36.131Z,102434.87
2022-10-17T04:14:08.665Z,102440.41
2022-10-17T04:16:41.656Z,102440.23
2022-10-17T04:19:15.596Z,102444.92
2022-10-17T04:21:47.752Z,102448.21
2022-10-17T04:24:20.128Z,102444.52
2022-10-17T04:26:54.872Z,102442.79
2022-10-17T04:29:27.173Z,102443.71
2022-10-17T04:31:59.425Z,102443.67
2022-10-17T04:34:31.576Z,102445.85
2022-10-17T04:37:03.825Z,102449.39
2022-10-17T04:39:35.928Z,102448.23
2022-10-17T04:42:08.338Z,102448.08
2022-10-17T04:44:40.869Z,102452.84
2022-10-17T04:47:13.457Z,102455.60
2022-10-17T04:49:45.594Z,102449.23
2022-10-17T04:52:18.034Z,102449.17
2022-10-17T04:54:50.259Z,102455.17
2022-10-17T04:57:23.051Z,102458.95
2022-10-17T04:59:55.232Z,102461.11
2022-10-17T05:02:27.670Z,102468.37
2022-10-17T05:05:00.605Z,102471.67
2022-10-17T05:07:32.801Z,102474.23
2022-10-17T05:10:05.004Z,102475.57
2022-10-17T05:12:37.313Z,102477.73
2022-10-17T05:15:11.534Z,102486.15
2022-10-17T05:17:43.849Z,102484.84
2022-10-17T05:20:16.548Z,102488.33
2022-10-17T05:22:48.728Z,102488.41
2022-10-17T05:25:20.949Z,102495.68
2022-10-17T05:27:53.177Z,102494.38
2022-10-17T05:30:25.485Z,102492.88
2022-10-17T05:32:58.114Z,102496.05
2022-10-17T05:35:30.292Z,102495.95
2022-10-17T05:38:02.533Z,102500.03
2022-10-17T05:40:34.720Z,102501.67
2022-10-17T05:43:06.879Z,102502.58
2022-10-17T05:45:39.111Z,102503.95
2022-10-17T05:48:11.452Z,102511.64
2022-10-17T05:50:43.611Z,102513.61
2022-10-17T05:53:15.789Z,102514.89
2022-10-17T05:55:48.324Z,102517.32
2022-10-17T05:58:32.438Z,102516.35
2022-10-17T06:01:12.858Z,102522.16
2022-10-17T06:03:45.354Z,102527.25
2022-10-17T06:06:19.012Z,102532.48
2022-10-17T06:08:51.177Z,102536.20
2022-10-17T06:11:23.437Z,102542.86
2022-10-17T06:13:55.645Z,102543.18
2022-10-17T06:16:27.896Z,102548.69
2022-10-17T06:19:00.135Z,102554.00
2022-10-17T06:21:34.875Z,102559.19
2022-10-17T06:24:07.238Z,102562.30
2022-10-17T06:26:39.461Z,102557.77
2022-10-17T06:29:12.211Z,102563.28
2022-10-17T06:31:44.515Z,102563.95
2022-10-17T06:34:16.885Z,102562.45
2022-10-17T06:36:49.631Z,102562.77
2022-10-17T06:39:22.138Z,102564.48
2022-10-17T06:41:54.536Z,102561.45
2022-10-17T06:44:30.743Z,102564.23
2022-10-17T06:47:03.558Z,102560.91
2022-10-17T06:49:35.700Z,102563.05
2022-10-17T06:52:08.084Z,102559.77
2022-10-17T06:54:40.305Z,102561.27
2022-10-17T06:57:12.430Z,102560.02
2022-10-17T06:59:44.884Z,102561.23
2022-10-17T07:02:17.072Z,102562.31
2022-10-17T07:04:50.378Z,102562.99
2022-10-17T07:07:22.502Z,102562.58
2022-10-17T07:09:58.343Z,102563.61
2022-10-17T07:12:30.564Z,102559.06
2022-10-17T07:15:04.329Z,102558.97
2022-10-17T07:17:36.940Z,102562.55
2022-10-17T07:20:12.928Z,102565.06
2022-10-17T07:22:45.475Z,102570.99
2022-10-17T07:25:17.852Z,102574.36
2022-10-17T07:27:51.297Z,102573.40
2022-10-17T07:30:24.061Z,102573.99
2022-10-17T07:32:57.330Z,102573.11
2022-10-17T07:35:29.631Z,102574.62
2022-10-17T07:38:01.775Z,102573.88
2022-10-17T07:40:33.965Z,102568.67
2022-10-17T07:43:06.088Z,102571.29
2022-10-17T07:45:38.722Z,102574.48
2022-10-17T07:48:11.057Z,102580.11
2022-10-17T07:50:43.758Z,102581.38
2022-10-17T07:53:16.021Z,102582.84
2022-10-17T07:55:49.834Z,102586.48
2022-10-17T07:58:22.038Z,102582.79
2022-10-17T08:00:54.421Z,102582.94
2022-10-17T08:03:26.665Z,102574.52
2022-10-17T08:06:02.193Z,102579.75
2022-10-17T08:08:34.546Z,102577.70
2022-10-17T08:11:09.919Z,102580.30
2022-10-17T08:13:43.395Z,102582.35
2022-10-17T08:16:16.280Z,102580.12
2022-10-17T08:18:50.977Z,102579.96
2022-10-17T08:21:23.091Z,102577.85
2022-10-17T08:23:55.237Z,102577.00
2022-10-17T08:26:27.369Z,102577.48
2022-10-17T08:28:59.561Z,102575.93
2022-10-17T08:31:31.832Z,102575.86
2022-10-17T08:34:03.949Z,102577.32
2022-10-17T08:36:36.144Z,102573.86
2022-10-17T08:39:09.320Z,102574.89
2022-10-17T08:41:54.181Z,102568.16
2022-10-17T08:44:37.685Z,102566.09
2022-10-17T08:47:16.085Z,102567.02
2022-10-17T08:49:52.560Z,102564.75
2022-10-17T08:52:35.694Z,102567.45
2022-10-17T08:57:55.016Z,102567.94
2022-10-17T09:00:29.854Z,102569.44
2022-10-17T09:03:15.385Z,102571.98
2022-10-17T09:05:55.328Z,102568.98
2022-10-17T09:08:42.970Z,102569.42
2022-10-17T09:11:23.884Z,102573.02
2022-10-17T09:14:12.402Z,102567.43
2022-10-17T09:17:03.633Z,102568.08
2022-10-17T09:19:40.282Z,102564.04
2022-10-17T09:22:18.384Z,102572.48
2022-10-17T09:24:55.862Z,102575.27
2022-10-17T09:27:33.759Z,102572.26
2022-10-17T09:30:44.603Z,102572.24
2022-10-17T09:33:35.184Z,102572.46
2022-10-17T09:36:16.358Z,102569.06
2022-10-17T09:38:51.868Z,102568.51
2022-10-17T09:41:44.354Z,102571.15
2022-10-17T09:44:21.905Z,102571.16
2022-10-17T09:47:07.375Z,102564.84
2022-10-17T09:49:41.930Z,102561.45
2022-10-17T09:52:18.859Z,102560.17
2022-10-17T09:54:53.620Z,102563.21
2022-10-17T09:57:26.498Z,102560.60
2022-10-17T10:00:04.108Z,102554.48
2022-10-17T10:02:40.914Z,102553.11
2022-10-17T10:05:21.644Z,102556.38
2022-10-17T10:08:06.702Z,102555.80
2022-10-17T10:10:43.097Z,102551.13
2022-10-17T10:13:22.143Z,102549.00
2022-10-17T10:15:54.306Z,102548.30
2022-10-17T10:18:36.614Z,102547.48
2022-10-17T10:21:12.141Z,102542.11
2022-10-17T10:23:45.828Z,102538.99
2022-10-17T10:26:29.478Z,102533.87
2022-10-17T10:29:06.106Z,102534.36
2022-10-17T10:31:41.397Z,102526.67
2022-10-17T10:34:22.246Z,102521.86
2022-10-17T10:36:59.617Z,102518.99
2022-10-17T10:39:49.867Z,102512.02
2022-10-17T10:42:30.005Z,102510.97
2022-10-17T10:45:07.452Z,102502.73
2022-10-17T10:47:51.332Z,102489.65
2022-10-17T10:50:34.125Z,102493.95
2022-10-17T10:53:26.270Z,102489.33
2022-10-17T10:56:02.224Z,102484.98
2022-10-17T10:58:48.965Z,102492.20
2022-10-17T11:01:26.580Z,102487.34
2022-10-17T11:04:16.012Z,102483.39
2022-10-17T11:06:50.331Z,102482.77
2022-10-17T11:09:46.650Z,102479.80
2022-10-17T11:12:19.836Z,102481.42
2022-10-17T11:14:57.131Z,102480.45
2022-10-17T11:17:36.140Z,102477.55
2022-10-17T11:20:23.615Z,102476.91
2022-10-17T11:23:02.186Z,102474.88
2022-10-17T11:25:37.660Z,102469.07
2022-10-17T11:28:16.201Z,102463.95
2022-10-17T11:30:57.455Z,102465.23
2022-10-17T11:33:35.565Z,102458.58
2022-10-17T11:36:11.216Z,102459.74
2022-10-17T11:38:48.885Z,102453.11
2022-10-17T11:41:25.989Z,102451.70
2022-10-17T11:44:04.269Z,102448.70
2022-10-17T11:46:38.976Z,102448.77
2022-10-17T11:49:20.407Z,102443.95
2022-10-17T11:52:01.584Z,102443.23
2022-10-17T11:54:40.591Z,102438.41
2022-10-17T11:57:31.236Z,102441.29
2022-10-17T12:00:20.485Z,102439.16
2022-10-17T12:02:59.860Z,102437.76
2022-10-17T12:05:41.701Z,102435.17
2022-10-17T12:08:21.432Z,102432.85
2022-10-17T12:10:59.629Z,102430.44
2022-10-17T12:13:56.885Z,102422.75
2022-10-17T12:16:46.870Z,102422.55
2022-10-17T12:19:30.908Z,102409.11
2022-10-17T12:22:07.486Z,102414.09
2022-10-17T12:24:44.365Z,102409.51
2022-10-17T12:27:38.519Z,102412.39
2022-10-17T12:30:23.357Z,102416.91
2022-10-17T12:33:22.051Z,102413.90
2022-10-17T12:36:13.777Z,102415.55
2022-10-17T12:38:49.916Z,102414.73
2022-10-17T12:41:55.893Z,102415.04
2022-10-17T12:44:40.280Z,102408.50
2022-10-17T12:47:38.834Z,102410.31
2022-10-17T12:50:42.217Z,102411.27
2022-10-17T12:53:22.205Z,102408.64
2022-10-17T12:56:02.399Z,102410.31
2022-10-17T12:58:35.791Z,102413.40
2022-10-17T13:01:24.371Z,102408.68
2022-10-17T13:03:58.157Z,102411.04
2022-10-17T13:06:32.313Z,102406.57
2022-10-17T13:09:07.310Z,102407.80
2022-10-17T13:11:41.196Z,102410.04
2022-10-17T13:14:16.544Z,102407.98
2022-10-17T13:16:57.506Z,102408.13
2022-10-17T13:19:40.482Z,102413.27
2022-10-17T13:22:17.894Z,102410.91
2022-10-17T13:24:51.045Z,102409.77
2022-10-17T13:27:29.396Z,102413.02
2022-10-17T13:30:04.607Z,102412.60
2022-10-17T13:32:40.900Z,102414.41
2022-10-17T13:35:15.389Z,102419.16
2022-10-17T13:37:53.976Z,102422.13
2022-10-17T13:43:24.349Z,102421.66
2022-10-17T13:46:19.349Z,102429.50
2022-10-17T13:48:57.355Z,102427.61
2022-10-17T13:51:30.532Z,102426.45
2022-10-17T13:54:02.803Z,102427.23
2022-10-17T13:56:37.065Z,102428.30
2022-10-17T13:59:24.135Z,102426.66
2022-10-17T14:01:57.582Z,102426.48
2022-10-17T14:04:39.989Z,102431.79
2022-10-17T14:07:46.227Z,102432.22
2022-10-17T14:10:27.940Z,102433.97
2022-10-17T14:13:01.530Z,102433.66
2022-10-17T14:15:37.558Z,102430.71
2022-10-17T14:18:15.965Z,102428.23
2022-10-17T14:23:46.172Z,102424.77
2022-10-17T14:26:21.974Z,102421.13
2022-10-17T14:29:07.166Z,102425.46
2022-10-17T14:31:40.221Z,102422.35
2022-10-17T14:34:26.684Z,102425.78
2022-10-17T14:36:59.849Z,102426.31
2022-10-17T14:39:32.873Z,102425.10
2022-10-17T14:42:05.253Z,102430.05
2022-10-17T14:44:38.574Z,102430.48
2022-10-17T14:47:42.586Z,102430.14
2022-10-17T14:50:33.267Z,102432.77
2022-10-17T14:53:08.025Z,102429.01
2022-10-17T14:55:42.153Z,102427.13
2022-10-17T14:58:32.264Z,102421.16
2022-10-17T15:01:05.409Z,102425.98
2022-10-17T15:03:37.916Z,102423.77
2022-10-17T15:06:20.299Z,102424.73
2022-10-17T15:08:52.450Z,102425.75
2022-10-17T15:11:24.622Z,102425.23
2022-10-17T15:13:56.841Z,102425.90
2022-10-17T15:16:32.564Z,102429.73
2022-10-17T15:19:05.376Z,102432.61
2022-10-17T15:21:40.803Z,102434.08
2022-10-17T15:24:16.029Z,102437.19
2022-10-17T15:26:49.693Z,102435.09
2022-10-17T15:29:21.925Z,102438.59
2022-10-17T15:31:54.108Z,102437.77
2022-10-17T15:34:26.249Z,102437.41
2022-10-17T15:36:58.889Z,102435.42
2022-10-17T15:39:30.953Z,102438.84
2022-10-17T15:42:03.189Z,102442.78
2022-10-17T15:44:36.662Z,102448.52
2022-10-17T15:47:13.112Z,102450.20
2022-10-17T15:49:46.092Z,102451.77
2022-10-17T15:52:18.716Z,102450.23
2022-10-17T15:54:51.400Z,102449.73
2022-10-17T15:57:27.344Z,102453.20
2022-10-17T16:00:01.915Z,102454.91
2022-10-17T16:02:34.542Z,102454.72
2022-10-17T16:05:14.959Z,102457.98
2022-10-17T16:07:48.505Z,102461.64
2022-10-17T16:10:21.960Z,102465.76
2022-10-17T16:12:54.968Z,102468.89
2022-10-17T16:15:29.104Z,102471.40
2022-10-17T16:18:04.361Z,102479.64
2022-10-17T16:20:40.876Z,102479.69
2022-10-17T16:23:15.688Z,102483.02
2022-10-17T16:25:47.792Z,102481.42
2022-10-17T16:28:19.944Z,102479.53
2022-10-17T16:30:52.088Z,102481.70
2022-10-17T16:33:24.197Z,102488.58
2022-10-17T16:35:56.303Z,102495.02
2022-10-17T16:38:28.416Z,102498.64
2022-10-17T16:41:00.558Z,102497.06
2022-10-17T16:43:36.589Z,102498.74
2022-10-17T16:46:08.830Z,102501.98
2022-10-17T16:51:19.437Z,102504.27
2022-10-17T16:53:54.560Z,102502.86
2022-10-17T16:56:29.905Z,102502.31
2022-10-17T16:59:02.736Z,102501.77
2022-10-17T17:01:34.836Z,102503.89
2022-10-17T17:04:09.163Z,102503.42
2022-10-17T17:06:41.388Z,102497.83
2022-10-17T17:09:13.728Z,102508.89
2022-10-17T17:11:45.931Z,102513.08
2022-10-17T17:14:18.354Z,102507.27
2022-10-17T17:16:50.444Z,102507.55
2022-10-17T17:19:22.574Z,102510.80
2022-10-17T17:21:54.820Z,102512.08
2022-10-17T17:24:26.899Z,102513.60
2022-10-17T17:26:59.450Z,102513.65
2022-10-17T17:29:31.692Z,102515.09
2022-10-17T17:32:03.810Z,102517.43
2022-10-17T17:34:38.516Z,102512.92
2022-10-17T17:37:10.646Z,102514.73
2022-10-17T17:39:42.737Z,102517.67
2022-10-17T17:42:15.236Z,102517.27
2022-10-17T17:44:48.666Z,102517.92
2022-10-17T17:47:20.821Z,102520.36
2022-10-17T17:49:53.021Z,102520.66
2022-10-17T17:52:25.108Z,102516.91
2022-10-17T17:54:57.259Z,102521.86
2022-10-17T17:57:30.099Z,102521.46
2022-10-17T18:00:04.284Z,102521.79
2022-10-17T18:02:39.589Z,102521.56
2022-10-17T18:05:14.689Z,102522.88
2022-10-17T18:07:49.117Z,102521.11
2022-10-17T18:10:21.315Z,102518.71
2022-10-17T18:12:53.445Z,102520.44
2022-10-17T18:15:25.727Z,102524.88
2022-10-17T18:17:57.850Z,102526.52
2022-10-17T18:20:30.133Z,102530.31
2022-10-17T18:23:04.213Z,102529.17
2022-10-17T18:25:36.784Z,102532.46
2022-10-17T18:28:09.182Z,102531.23
2022-10-17T18:30:41.467Z,102529.63
2022-10-17T18:33:13.553Z,102528.67
2022-10-17T18:35:45.751Z,102527.06
2022-10-17T18:38:17.924Z,102523.70
2022-10-17T18:40:50.831Z,102527.50
2022-10-17T18:43:23.077Z,102519.86
2022-10-17T18:46:04.019Z,102532.16
2022-10-17T18:48:36.887Z,102531.10
2022-10-17T18:51:09.355Z,102531.80
2022-10-17T18:53:44.617Z,102533.45
2022-10-17T18:56:18.091Z,102533.70
2022-10-17T18:58:50.547Z,102536.65
2022-10-17T19:01:24.956Z,102536.14
2022-10-17T19:03:58.873Z,102540.41
2022-10-17T19:06:33.207Z,102543.88
2022-10-17T19:09:08.783Z,102544.85
2022-10-17T19:11:42.185Z,102550.27
2022-10-17T19:14:15.019Z,102547.64
2022-10-17T19:16:49.148Z,102544.77
2022-10-17T19:19:24.318Z,102550.73
2022-10-17T19:21:57.229Z,102554.17
2022-10-17T19:24:31.671Z,102557.30
2022-10-17T19:27:05.349Z,102558.98
2022-10-17T19:29:37.531Z,102564.39
2022-10-17T19:32:15.615Z,102565.52
2022-10-17T19:34:50.154Z,102564.10
2022-10-17T19:37:22.266Z,102565.71
2022-10-17T19:39:54.352Z,102566.59
2022-10-17T19:42:26.500Z,102553.34
2022-10-17T19:44:58.590Z,102562.39
2022-10-17T19:47:30.815Z,102564.77
2022-10-17T19:52:36.139Z,102571.88
2022-10-17T19:55:09.336Z,102573.05
2022-10-17T19:57:41.537Z,102572.46
2022-10-17T20:00:15.599Z,102573.11
2022-10-17T20:02:47.699Z,102576.31
2022-10-17T20:05:23.705Z,102576.38
2022-10-17T20:07:58.279Z,102577.86
2022-10-17T20:10:30.558Z,102562.73
2022-10-17T20:13:03.137Z,102582.36
2022-10-17T20:15:35.264Z,102581.23
2022-10-17T20:18:08.369Z,102568.52
2022-10-17T20:20:40.695Z,102574.08
2022-10-17T20:23:12.918Z,102565.34
2022-10-17T20:25:45.303Z,102575.45
2022-10-17T20:28:17.469Z,102565.77
2022-10-17T20:30:49.567Z,102572.51
2022-10-17T20:33:21.740Z,102574.56
2022-10-17T20:35:53.928Z,102573.39
2022-10-17T20:38:26.080Z,102569.96
2022-10-17T20:41:01.004Z,102566.61
2022-10-17T20:43:33.643Z,102567.78
2022-10-17T20:46:29.348Z,102564.69
2022-10-17T20:48:59.326Z,102563.77
2022-10-17T20:51:31.557Z,102566.81
2022-10-17T20:54:03.871Z,102566.54
2022-10-17T20:56:37.366Z,102564.73
2022-10-17T20:59:13.220Z,102561.27
2022-10-17T21:01:44.108Z,102562.36
2022-10-17T21:04:46.950Z,102562.70
2022-10-17T21:07:09.152Z,102558.73
2022-10-17T21:09:41.295Z,102558.56
2022-10-17T21:12:21.614Z,102558.30
2022-10-17T21:15:03.755Z,102556.75
2022-10-17T21:17:35.911Z,102552.55
2022-10-17T21:20:09.797Z,102554.80
2022-10-17T21:22:41.877Z,102555.23
2022-10-17T21:25:14.262Z,102552.61
2022-10-17T21:27:46.455Z,102556.05
2022-10-17T21:30:18.684Z,102555.78
2022-10-17T21:32:54.132Z,102553.39
2022-10-17T21:35:26.484Z,102553.63
2022-10-17T21:37:58.576Z,102553.05
2022-10-17T21:40:30.968Z,102555.50
2022-10-17T21:43:03.068Z,102557.45
2022-10-17T21:45:38.474Z,102559.20
2022-10-17T21:48:13.067Z,102558.30
2022-10-17T21:50:46.416Z,102559.02
2022-10-17T21:53:18.614Z,102559.64
2022-10-17T21:55:50.729Z,102557.95
2022-10-17T21:58:22.935Z,102554.35
2022-10-17T22:00:55.239Z,102552.65
2022-10-17T22:03:27.308Z,102553.05
2022-10-17T22:06:07.048Z,102558.02
2022-10-17T22:08:51.568Z,102560.66
2022-10-17T22:11:26.165Z,102556.20
2022-10-17T22:13:59.867Z,102554.33
2022-10-17T22:16:32.290Z,102555.22
2022-10-17T22:19:08.605Z,102552.96
2022-10-17T22:21:40.725Z,102546.21
2022-10-17T22:24:16.617Z,102550.33
2022-10-17T22:26:51.085Z,102547.92
2022-10-17T22:29:23.244Z,102546.45
2022-10-17T22:31:55.408Z,102538.27
2022-10-17T22:34:27.824Z,102547.77
2022-10-17T22:36:59.913Z,102545.02
2022-10-17T22:39:32.124Z,102540.34
2022-10-17T22:42:04.201Z,102541.13
2022-10-17T22:44:36.386Z,102536.77
2022-10-17T22:47:08.525Z,102539.13
2022-10-17T22:49:41.835Z,102534.98
2022-10-17T22:52:13.916Z,102533.59
2022-10-17T22:54:46.116Z,102534.01
2022-10-17T22:57:18.332Z,102530.00
2022-10-17T22:59:50.612Z,102531.88
2022-10-17T23:02:22.721Z,102528.64
2022-10-17T23:04:54.844Z,102524.66
2022-10-17T23:07:27.396Z,102525.36
2022-10-17T23:09:59.657Z,102529.44
2022-10-17T23:12:31.999Z,102526.63
2022-10-17T23:15:05.128Z,102526.39
2022-10-17T23:17:37.220Z,102525.19
2022-10-17T23:20:10.844Z,102522.48
2022-10-17T23:22:43.085Z,102523.29
2022-10-17T23:25:15.237Z,102522.33
2022-10-17T23:27:47.364Z,102517.91
2022-10-17T23:30:19.910Z,102513.34
2022-10-17T23:32:52.018Z,102517.20
2022-10-17T23:35:24.721Z,102517.53
2022-10-17T23:37:56.912Z,102518.50
2022-10-17T23:40:29.372Z,102516.96
2022-10-17T23:43:01.478Z,102518.71
2022-10-17T23:45:36.804Z,102516.73
2022-10-17T23:48:09.362Z,102511.70
2022-10-17T23:50:41.479Z,102512.14
2022-10-17T23:53:13.584Z,102513.93
2022-10-17T23:56:03.344Z,102514.09
2022-10-17T23:58:36.092Z,102513.48
